joomla templates top joomla templates template joomla

King Air Abend

Wetterbeurteilung mit Hilfe Webcam und ATIS

 

Webcam 1Webcam 2

(Zum vergrößern auf das Bild klicken)

Wetteranzeige

Aktuelles Platzwetter Stand 19.10.2019 07:44Z

AvgMin / Max
Windrichtung150 Deg140 / 180 Deg
Windgeschwindigkeit5 kt4 / 9 kt
Sichtweite>10000 m
Temperatur11 °C
Taupunkt9 °C
Feuchte89 %
QNH1011.9 hPa
QFE958.6 hPa
WolkenOVC008
Wetter-RA

Aerodrome Terminal Information Service (ATIS) Coburg

METAR
EDQC 190720Z AUTO 16006KT 9999 BKN007 OVC011 11/09 Q1011=

Wetterverlauf

Notam

C3571/19 - AD PPR. 22 OCT 00:00 2019 UNTIL 09 DEC 23:59 2019. CREATED: 11 OCT 08:29 2019

C0503/18 - COBURG INFO CHANGED TO 128.680 (8.33 KHZ). 28 FEB 12:22 2018 UNTIL PERM. CREATED:
28 FEB 12:22 2018

Windvorhersage

Verkehrslandeplatz Coburg Brandensteinsebene
Tower
Zur Brandensteinsebene
96450 Coburg

 

Telefon +49 (0) 95 61 / 9 20 98
Telefax +49 (0) 95 61 / 9 20 06
EMail tower@vlp-coburg.de